Time;durP1;ratioP1;P1;durP2;ratioP2;P2;SDS_P1;SDS_P2;PMS_P1;PMS_P2;Temp;Humidity;BMP_temperature;BMP_pressure;BME280_temperature;BME280_humidity;BME280_pressure;Samples;Min_cycle;Max_cycle;Signal;HPM_P1;HPM_P2
2023/05/29 00:00:38;;;;;;;14.20;5.00;;;;;;;14.38;68.63;101162.66;107539;1251;97724;-67
2023/05/29 00:03:23;;;;;;;11.30;5.20;;;;;;;14.38;68.77;101160.85;107590;1251;98356;-68
2023/05/29 00:05:52;;;;;;;11.80;5.20;;;;;;;14.39;69.09;101157.98;107586;1251;110672;-66
2023/05/29 00:08:21;;;;;;;16.20;5.20;;;;;;;14.33;68.93;101152.64;107608;1250;109979;-67
2023/05/29 00:10:50;;;;;;;11.90;5.40;;;;;;;14.30;69.26;101154.23;107579;1251;108715;-73
2023/05/29 00:13:18;;;;;;;8.90;5.10;;;;;;;14.26;69.33;101147.61;107597;1251;97805;-68
2023/05/29 00:15:47;;;;;;;10.70;5.60;;;;;;;14.28;69.34;101152.83;107507;1254;98977;-67
2023/05/29 00:18:15;;;;;;;20.10;5.00;;;;;;;14.28;69.33;101153.66;107607;1251;112036;-65
2023/05/29 00:20:44;;;;;;;12.40;5.10;;;;;;;14.24;69.50;101154.05;107561;1251;110549;-66
2023/05/29 00:23:12;;;;;;;10.30;4.80;;;;;;;14.20;69.37;101154.48;107739;1257;107448;-67
2023/05/29 00:25:41;;;;;;;9.70;4.70;;;;;;;14.13;70.08;101158.24;107586;1249;98048;-70
2023/05/29 00:28:11;;;;;;;9.20;4.80;;;;;;;14.04;70.11;101159.08;107518;1251;97817;-66
2023/05/29 00:30:40;;;;;;;11.70;4.70;;;;;;;13.97;70.32;101160.30;107742;1252;110478;-66
2023/05/29 00:33:08;;;;;;;12.20;5.20;;;;;;;13.91;70.30;101158.67;107556;1251;109411;-66
2023/05/29 00:35:36;;;;;;;18.30;5.30;;;;;;;13.86;70.48;101154.46;107550;1251;107665;-69
2023/05/29 00:38:05;;;;;;;7.70;4.90;;;;;;;13.82;70.31;101151.45;107572;1252;97931;-66
2023/05/29 00:40:33;;;;;;;11.30;5.40;;;;;;;13.77;70.73;101150.98;107546;1251;97861;-66
2023/05/29 00:43:02;;;;;;;12.60;5.60;;;;;;;13.71;71.05;101152.66;107585;1251;111327;-74
2023/05/29 00:45:36;;;;;;;11.70;5.40;;;;;;;13.68;70.72;101151.73;107523;1251;109028;-68
2023/05/29 00:48:10;;;;;;;13.60;5.40;;;;;;;13.69;70.60;101153.27;107446;1254;108811;-69
2023/05/29 00:50:38;;;;;;;17.50;5.40;;;;;;;13.68;70.44;101155.45;107700;1251;97877;-71
2023/05/29 00:53:07;;;;;;;16.20;5.60;;;;;;;13.70;70.29;101157.48;107549;1250;98443;-69
2023/05/29 00:55:36;;;;;;;17.90;5.60;;;;;;;13.73;70.45;101162.41;107681;1251;111778;-67
2023/05/29 00:58:06;;;;;;;13.10;5.70;;;;;;;13.75;70.25;101164.92;107599;1251;108497;-70
2023/05/29 01:00:38;;;;;;;11.30;4.80;;;;;;;13.77;70.28;101164.92;107630;1251;107259;-66
2023/05/29 01:03:08;;;;;;;21.80;5.60;;;;;;;13.78;70.06;101162.09;107612;1251;97793;-67
2023/05/29 01:05:37;;;;;;;14.10;4.60;;;;;;;13.78;69.74;101165.55;107587;1251;97892;-70
2023/05/29 01:08:06;;;;;;;13.40;5.20;;;;;;;13.78;69.60;101169.11;107691;1255;111764;-67
2023/05/29 01:10:37;;;;;;;11.70;5.10;;;;;;;13.77;69.75;101169.75;107559;1251;110008;-69
2023/05/29 01:13:15;;;;;;;11.70;4.70;;;;;;;13.72;69.38;101168.60;107584;1254;108588;-67
2023/05/29 01:15:58;;;;;;;12.60;5.80;;;;;;;13.65;69.37;101164.20;107679;1250;97838;-71
2023/05/29 01:18:29;;;;;;;16.70;5.80;;;;;;;13.51;69.45;101162.17;107653;1251;97767;-69
2023/05/29 01:21:19;;;;;;;14.30;5.70;;;;;;;13.33;69.50;101159.86;107599;1251;111673;-70
2023/05/29 01:24:09;;;;;;;15.30;8.10;;;;;;;13.27;69.77;101166.34;107707;1251;109932;-68
2023/05/29 01:27:11;;;;;;;13.10;5.40;;;;;;;13.29;69.85;101169.23;107632;1251;107511;-66
2023/05/29 01:29:43;;;;;;;11.50;4.80;;;;;;;13.33;69.80;101173.15;107246;1251;97841;-68
2023/05/29 01:32:12;;;;;;;19.30;7.10;;;;;;;13.39;69.80;101178.27;107470;1251;98334;-67
2023/05/29 01:34:40;;;;;;;14.30;6.20;;;;;;;13.42;69.67;101181.02;107529;1254;111799;-67
2023/05/29 01:37:09;;;;;;;13.80;6.50;;;;;;;13.41;69.65;101181.07;107722;1250;109814;-65
2023/05/29 01:39:37;;;;;;;11.60;6.10;;;;;;;13.31;69.79;101176.96;107533;1251;106975;-68
2023/05/29 01:42:06;;;;;;;19.20;6.40;;;;;;;13.15;69.72;101177.00;107514;1251;97717;-67
2023/05/29 01:44:37;;;;;;;16.30;6.70;;;;;;;13.06;69.79;101174.63;107512;1251;97818;-66
2023/05/29 01:47:07;;;;;;;16.50;6.50;;;;;;;13.07;70.15;101179.67;107648;1250;110814;-65
2023/05/29 01:49:37;;;;;;;18.90;6.90;;;;;;;13.07;70.65;101182.77;107545;1250;108657;-68
2023/05/29 01:52:06;;;;;;;11.90;6.60;;;;;;;13.03;70.29;101185.52;107542;1251;107945;-68
2023/05/29 01:54:34;;;;;;;17.00;6.50;;;;;;;13.02;70.17;101187.59;107565;1251;97881;-66
2023/05/29 01:57:06;;;;;;;16.70;6.80;;;;;;;13.05;70.59;101190.91;107601;1250;97918;-68
2023/05/29 01:59:35;;;;;;;15.30;6.80;;;;;;;13.04;70.58;101194.27;107622;1251;111657;-69
2023/05/29 02:02:11;;;;;;;15.00;6.90;;;;;;;13.05;70.59;101194.67;107622;1251;110182;-66
2023/05/29 02:04:40;;;;;;;13.10;6.70;;;;;;;12.99;70.95;101195.91;107502;1251;108158;-70
2023/05/29 02:07:11;;;;;;;18.40;7.80;;;;;;;12.89;71.26;101195.36;107509;1251;97948;-66
2023/05/29 02:09:41;;;;;;;17.70;6.80;;;;;;;12.83;70.88;101194.48;107671;1251;98424;-67
2023/05/29 02:12:09;;;;;;;16.90;6.50;;;;;;;12.80;71.30;101195.85;107510;1254;112791;-67
2023/05/29 02:14:40;;;;;;;15.60;7.50;;;;;;;12.74;71.28;101192.11;107509;1251;109663;-66
2023/05/29 02:17:09;;;;;;;10.80;6.30;;;;;;;12.65;71.85;101191.65;107503;1254;108760;-66
2023/05/29 02:19:37;;;;;;;16.90;6.40;;;;;;;12.63;71.93;101197.60;107435;1251;97806;-67
2023/05/29 02:22:06;;;;;;;13.30;6.30;;;;;;;12.66;72.23;101199.78;107661;1255;97894;-66
2023/05/29 02:24:35;;;;;;;19.50;7.10;;;;;;;12.69;71.98;101202.81;107641;1251;112124;-64
2023/05/29 02:27:04;;;;;;;12.60;6.20;;;;;;;12.76;71.87;101207.20;107491;1254;109133;-66
2023/05/29 02:29:32;;;;;;;13.50;7.00;;;;;;;12.84;71.84;101206.45;107630;1251;108744;-67
2023/05/29 02:32:01;;;;;;;18.10;6.80;;;;;;;12.88;71.51;101206.30;107508;1251;99062;-67
2023/05/29 02:34:34;;;;;;;19.10;6.00;;;;;;;12.91;71.29;101212.51;107538;1251;97787;-69
2023/05/29 02:37:02;;;;;;;22.80;6.60;;;;;;;12.93;71.23;101212.68;107516;1251;111384;-66
2023/05/29 02:39:31;;;;;;;14.80;6.80;;;;;;;12.95;71.29;101216.06;107502;1251;109067;-67
2023/05/29 02:41:59;;;;;;;20.10;5.70;;;;;;;12.97;71.18;101218.58;107641;1256;106919;-68
2023/05/29 02:44:27;;;;;;;15.80;7.10;;;;;;;12.98;71.19;101218.17;107578;1254;97934;-66
2023/05/29 02:46:56;;;;;;;22.40;7.10;;;;;;;12.93;70.95;101217.61;107501;1251;97860;-66
2023/05/29 02:49:24;;;;;;;15.10;7.30;;;;;;;12.89;71.40;101222.80;107573;1251;112379;-66
2023/05/29 02:51:56;;;;;;;16.10;6.20;;;;;;;12.84;71.71;101219.61;107564;1251;109308;-69
2023/05/29 02:54:25;;;;;;;16.10;7.80;;;;;;;12.77;71.43;101223.30;107662;1251;107702;-68
2023/05/29 02:56:54;;;;;;;22.80;7.90;;;;;;;12.78;71.45;101227.16;107639;1251;97800;-70
2023/05/29 02:59:22;;;;;;;22.00;6.80;;;;;;;12.85;71.73;101226.77;107575;1251;97706;-67
2023/05/29 03:01:51;;;;;;;17.10;7.50;;;;;;;12.91;71.68;101223.52;107546;1250;111471;-67
2023/05/29 03:04:20;;;;;;;15.60;6.50;;;;;;;12.98;71.49;101223.70;107556;1250;109151;-70
2023/05/29 03:06:49;;;;;;;15.80;6.20;;;;;;;13.04;71.33;101227.90;107500;1251;108628;-66
2023/05/29 03:09:17;;;;;;;19.40;7.00;;;;;;;13.10;71.29;101230.80;107433;1251;97802;-67
2023/05/29 03:11:47;;;;;;;17.80;7.40;;;;;;;13.13;71.18;101229.92;107654;1251;98151;-68
2023/05/29 03:14:15;;;;;;;13.50;6.80;;;;;;;13.15;70.96;101229.89;107559;1251;111945;-67
2023/05/29 03:16:45;;;;;;;16.70;6.50;;;;;;;13.17;70.94;101228.67;107577;1251;110338;-67
2023/05/29 03:19:13;;;;;;;15.80;6.50;;;;;;;13.15;70.96;101229.55;107635;1251;108640;-69
2023/05/29 03:21:42;;;;;;;16.60;6.80;;;;;;;13.06;70.79;101229.38;107563;1251;97806;-69
2023/05/29 03:24:13;;;;;;;15.20;6.60;;;;;;;13.05;70.85;101231.65;107656;1250;97980;-67
2023/05/29 03:26:42;;;;;;;17.30;7.20;;;;;;;13.06;71.30;101231.48;107634;1250;110472;-67
2023/05/29 03:29:10;;;;;;;20.90;7.20;;;;;;;13.01;71.08;101234.64;107744;1255;108949;-66
2023/05/29 03:31:38;;;;;;;20.60;6.80;;;;;;;13.04;71.17;101236.55;107584;1250;108950;-67
2023/05/29 03:34:07;;;;;;;20.60;7.20;;;;;;;13.11;71.22;101240.36;107599;1250;97812;-65
2023/05/29 03:36:39;;;;;;;23.90;7.20;;;;;;;13.20;71.41;101239.60;107623;1251;98305;-68
2023/05/29 03:39:08;;;;;;;13.30;7.00;;;;;;;13.28;71.32;101243.48;107564;1250;112144;-65
2023/05/29 03:41:36;;;;;;;13.80;7.10;;;;;;;13.30;70.88;101243.55;107623;1251;110243;-68
2023/05/29 03:44:06;;;;;;;25.20;7.80;;;;;;;13.32;70.94;101247.84;107594;1251;107140;-66
2023/05/29 03:46:35;;;;;;;24.60;7.70;;;;;;;13.35;70.93;101247.41;107552;1250;97810;-67
2023/05/29 03:49:07;;;;;;;15.60;6.70;;;;;;;13.39;70.86;101260.02;107600;1251;97797;-68
2023/05/29 03:51:36;;;;;;;23.60;7.80;;;;;;;13.41;70.86;101254.91;107688;1250;112063;-67
2023/05/29 03:54:04;;;;;;;19.80;7.90;;;;;;;13.37;70.81;101259.42;107603;1251;109311;-67
2023/05/29 03:56:35;;;;;;;25.30;8.20;;;;;;;13.30;70.56;101263.52;107603;1251;107899;-67
2023/05/29 03:59:04;;;;;;;12.80;6.90;;;;;;;13.23;70.73;101269.77;107624;1256;97694;-67
2023/05/29 04:01:34;;;;;;;17.00;7.80;;;;;;;13.23;70.69;101269.05;107611;1249;98351;-69
2023/05/29 04:04:02;;;;;;;19.60;7.30;;;;;;;13.23;71.05;101273.73;107562;1250;112573;-67
2023/05/29 04:06:31;;;;;;;26.50;11.40;;;;;;;13.22;70.83;101275.94;107737;1251;109960;-67
2023/05/29 04:09:00;;;;;;;27.30;8.30;;;;;;;13.26;71.06;101276.34;107594;1253;109446;-67
2023/05/29 04:11:29;;;;;;;20.80;7.60;;;;;;;13.31;70.88;101275.08;107715;1250;97810;-68
2023/05/29 04:13:58;;;;;;;18.70;7.20;;;;;;;13.40;70.93;101272.88;107701;1249;97812;-67
2023/05/29 04:16:30;;;;;;;19.50;7.50;;;;;;;13.40;70.89;101271.40;107533;1250;111824;-67
2023/05/29 04:19:00;;;;;;;19.60;6.50;;;;;;;13.36;70.64;101271.05;107572;1254;110688;-68
2023/05/29 04:21:32;;;;;;;15.40;7.00;;;;;;;13.34;70.60;101265.81;107514;1251;108230;-67
2023/05/29 04:24:01;;;;;;;14.60;6.70;;;;;;;13.29;70.64;101263.45;107570;1251;97798;-66
2023/05/29 04:26:32;;;;;;;21.50;7.00;;;;;;;13.22;70.72;101263.14;107600;1250;97701;-66
2023/05/29 04:29:03;;;;;;;24.40;6.90;;;;;;;13.20;70.88;101265.51;107579;1251;112191;-65
2023/05/29 04:31:32;;;;;;;20.40;6.80;;;;;;;13.20;70.94;101266.06;107517;1251;109171;-67
2023/05/29 04:34:04;;;;;;;21.10;7.70;;;;;;;13.20;71.11;101265.92;107488;1250;108181;-67
2023/05/29 04:36:33;;;;;;;16.90;8.30;;;;;;;13.22;71.19;101268.74;107577;1250;97707;-67
2023/05/29 04:39:07;;;;;;;18.70;8.10;;;;;;;13.31;71.19;101270.29;107590;1250;97943;-68
2023/05/29 04:41:37;;;;;;;15.30;7.30;;;;;;;13.37;70.76;101270.23;107616;1251;110848;-67
2023/05/29 04:44:11;;;;;;;18.00;7.60;;;;;;;13.45;70.53;101270.65;107648;1251;109120;-69
2023/05/29 04:46:46;;;;;;;17.30;7.10;;;;;;;13.53;70.48;101271.21;107669;1251;107688;-66
2023/05/29 04:49:16;;;;;;;21.10;7.20;;;;;;;13.62;70.43;101272.52;107668;1257;97684;-65
2023/05/29 04:51:46;;;;;;;17.80;7.80;;;;;;;13.70;70.21;101267.98;107650;1251;97848;-67
2023/05/29 04:54:16;;;;;;;19.40;8.20;;;;;;;13.79;69.93;101269.98;107654;1250;112140;-67
2023/05/29 04:56:46;;;;;;;19.50;7.90;;;;;;;13.86;69.82;101270.61;107523;1251;109736;-67
2023/05/29 04:59:15;;;;;;;19.20;7.70;;;;;;;13.90;69.42;101273.63;107672;1251;107733;-71
2023/05/29 05:01:43;;;;;;;14.40;6.80;;;;;;;13.93;69.12;101273.55;107447;1251;97899;-69
2023/05/29 05:04:12;;;;;;;25.70;7.70;;;;;;;13.97;69.11;101279.92;107654;1251;97712;-67
2023/05/29 05:06:40;;;;;;;23.30;8.00;;;;;;;14.04;69.07;101283.68;107698;1251;110486;-67
2023/05/29 05:09:09;;;;;;;28.20;8.00;;;;;;;14.12;68.92;101284.77;107673;1251;109316;-67
2023/05/29 05:11:42;;;;;;;20.50;7.50;;;;;;;14.18;68.77;101283.95;107671;1249;107495;-66
2023/05/29 05:14:12;;;;;;;25.40;7.50;;;;;;;14.24;68.51;101293.88;107695;1250;97939;-66
2023/05/29 05:16:41;;;;;;;14.30;6.90;;;;;;;14.31;68.18;101296.08;107540;1251;97739;-64
2023/05/29 05:19:11;;;;;;;16.20;7.20;;;;;;;14.37;67.73;101294.65;107532;1251;110893;-66
2023/05/29 05:21:40;;;;;;;16.80;6.30;;;;;;;14.44;67.56;101294.01;107652;1254;109021;-67
2023/05/29 05:24:09;;;;;;;19.30;7.40;;;;;;;14.52;67.37;101291.44;107639;1250;106825;-68
2023/05/29 05:26:40;;;;;;;20.30;6.00;;;;;;;14.60;67.12;101296.95;107612;1251;97901;-66
2023/05/29 05:29:08;;;;;;;23.50;6.60;;;;;;;14.66;66.86;101295.64;107735;1250;97740;-65
2023/05/29 05:31:38;;;;;;;18.70;6.10;;;;;;;14.74;66.54;101295.47;107608;1251;111783;-67
2023/05/29 05:34:06;;;;;;;17.20;6.90;;;;;;;14.81;66.32;101294.05;107737;1250;110864;-67
2023/05/29 05:36:36;;;;;;;18.70;6.60;;;;;;;14.88;66.01;101292.61;107624;1255;107121;-67
2023/05/29 05:39:09;;;;;;;19.90;7.00;;;;;;;14.96;65.86;101291.12;107538;1251;97825;-67
2023/05/29 05:41:38;;;;;;;12.70;5.90;;;;;;;15.04;65.67;101292.66;107677;1250;98344;-66
2023/05/29 05:44:06;;;;;;;18.90;7.10;;;;;;;15.12;65.40;101285.56;107708;1251;112451;-66
2023/05/29 05:46:44;;;;;;;23.70;6.90;;;;;;;15.20;65.03;101284.62;107584;1251;108706;-67
2023/05/29 05:49:13;;;;;;;16.10;5.70;;;;;;;15.25;64.71;101284.27;107596;1251;108179;-66
2023/05/29 05:51:44;;;;;;;18.00;6.90;;;;;;;15.29;64.63;101283.88;107575;1249;97805;-67
2023/05/29 05:54:12;;;;;;;15.20;6.20;;;;;;;15.37;64.56;101283.46;107702;1251;97888;-67
2023/05/29 05:56:44;;;;;;;19.00;5.80;;;;;;;15.43;63.97;101280.66;107602;1251;112267;-66
2023/05/29 05:59:15;;;;;;;16.80;6.30;;;;;;;15.48;63.88;101276.68;107688;1251;108429;-67
2023/05/29 06:01:44;;;;;;;16.60;5.50;;;;;;;15.55;63.58;101276.95;107611;1251;108025;-68
2023/05/29 06:04:14;;;;;;;13.00;5.30;;;;;;;15.59;63.40;101275.58;107529;1251;97941;-69
2023/05/29 06:06:46;;;;;;;13.30;5.60;;;;;;;15.65;63.38;101274.05;107581;1251;97701;-72
2023/05/29 06:09:14;;;;;;;23.10;6.30;;;;;;;15.72;62.78;101272.08;107543;1251;111550;-68
2023/05/29 06:11:45;;;;;;;13.90;5.10;;;;;;;15.81;62.34;101266.88;107553;1251;110091;-69
2023/05/29 06:14:14;;;;;;;12.10;4.40;;;;;;;15.90;61.29;101266.35;107663;1250;108339;-67
2023/05/29 06:16:43;;;;;;;17.00;4.20;;;;;;;15.97;61.34;101263.40;107642;1251;97821;-67
2023/05/29 06:19:12;;;;;;;16.80;4.40;;;;;;;16.08;61.23;101262.09;107604;1253;98364;-68
2023/05/29 06:21:58;;;;;;;12.70;4.50;;;;;;;16.18;60.85;101258.21;107596;1252;111824;-67
2023/05/29 06:24:27;;;;;;;9.60;4.20;;;;;;;16.29;61.12;101257.19;107608;1251;109757;-66
2023/05/29 06:26:56;;;;;;;9.60;4.10;;;;;;;16.40;60.96;101259.45;107579;1252;108104;-69
2023/05/29 06:29:25;;;;;;;9.00;4.20;;;;;;;16.47;60.35;101263.52;107571;1251;97883;-66
2023/05/29 06:31:54;;;;;;;13.30;3.70;;;;;;;16.53;59.82;101263.38;107661;1251;98348;-69
2023/05/29 06:34:22;;;;;;;15.10;3.50;;;;;;;16.60;59.62;101265.68;107623;1250;110887;-67
2023/05/29 06:36:51;;;;;;;7.70;3.50;;;;;;;16.69;59.54;101265.25;107617;1251;109379;-66
2023/05/29 06:39:22;;;;;;;5.70;3.50;;;;;;;16.78;59.47;101263.05;107567;1254;107057;-70
2023/05/29 06:41:55;;;;;;;5.30;3.10;;;;;;;16.85;59.01;101262.37;107631;1251;97888;-65
2023/05/29 06:44:24;;;;;;;12.40;3.90;;;;;;;16.93;59.13;101260.80;107673;1250;98382;-66
2023/05/29 06:46:55;;;;;;;9.00;3.60;;;;;;;17.01;58.76;101259.00;107600;1251;112579;-68
2023/05/29 06:49:23;;;;;;;12.20;3.70;;;;;;;17.11;58.93;101258.88;107654;1251;110187;-66
2023/05/29 06:51:52;;;;;;;13.50;3.80;;;;;;;17.21;59.21;101259.20;107574;1251;109590;-65
2023/05/29 06:54:25;;;;;;;13.20;3.20;;;;;;;17.30;59.20;101259.31;107586;1249;97931;-66
2023/05/29 06:56:55;;;;;;;6.70;3.30;;;;;;;17.41;59.14;101258.74;107645;1251;97691;-67
2023/05/29 06:59:38;;;;;;;8.00;3.40;;;;;;;17.50;58.79;101262.05;107619;1251;111776;-66
2023/05/29 07:02:07;;;;;;;8.50;2.90;;;;;;;17.57;57.86;101256.90;107596;1250;109347;-68
2023/05/29 07:04:35;;;;;;;9.30;3.60;;;;;;;17.64;57.70;101260.81;107563;1251;108501;-67
2023/05/29 07:07:05;;;;;;;6.70;3.40;;;;;;;17.74;57.68;101258.46;107576;1250;97812;-67
2023/05/29 07:09:34;;;;;;;9.90;3.70;;;;;;;17.84;57.32;101256.77;107641;1250;98326;-68
2023/05/29 07:12:04;;;;;;;9.20;3.40;;;;;;;17.94;56.85;101251.20;107659;1251;110591;-66
2023/05/29 07:14:32;;;;;;;8.70;3.10;;;;;;;18.03;56.56;101248.54;107631;1251;109999;-66
2023/05/29 07:17:01;;;;;;;11.80;3.00;;;;;;;18.10;56.02;101249.54;107638;1253;108797;-67
2023/05/29 07:19:32;;;;;;;11.00;3.00;;;;;;;18.19;55.53;101248.26;107749;1250;97809;-68
2023/05/29 07:22:01;;;;;;;10.50;3.00;;;;;;;18.30;55.49;101245.53;107726;1252;97711;-68
2023/05/29 07:24:29;;;;;;;5.80;2.50;;;;;;;18.41;54.97;101241.38;107657;1251;110842;-65
2023/05/29 07:26:58;;;;;;;10.00;3.80;;;;;;;18.55;55.34;101244.86;107711;1250;107772;-66
2023/05/29 07:29:27;;;;;;;9.70;3.30;;;;;;;18.64;54.10;101245.86;107569;1250;108423;-67
2023/05/29 07:31:55;;;;;;;13.60;3.80;;;;;;;18.72;53.66;101242.17;107668;1256;97914;-67
2023/05/29 07:34:24;;;;;;;15.60;3.30;;;;;;;18.87;53.73;101242.94;107707;1251;98502;-68
2023/05/29 07:37:02;;;;;;;7.40;3.30;;;;;;;18.98;53.82;101243.52;107617;1251;112393;-67
2023/05/29 07:39:33;;;;;;;17.40;4.10;;;;;;;19.07;53.49;101240.70;107637;1251;111028;-68
2023/05/29 07:42:06;;;;;;;7.60;2.70;;;;;;;19.14;53.27;101238.23;107610;1250;108090;-65
2023/05/29 07:44:36;;;;;;;10.40;3.00;;;;;;;19.25;53.39;101232.35;107731;1251;97925;-67
2023/05/29 07:47:05;;;;;;;9.70;2.90;;;;;;;19.37;53.18;101230.83;107700;1251;97833;-66
2023/05/29 07:49:41;;;;;;;7.60;3.20;;;;;;;19.46;52.76;101226.48;107561;1250;112472;-66
2023/05/29 07:52:11;;;;;;;14.30;3.10;;;;;;;19.56;52.38;101224.77;107630;1251;109405;-66
2023/05/29 07:54:39;;;;;;;9.60;3.00;;;;;;;19.67;52.67;101225.83;107588;1250;108758;-67
2023/05/29 07:57:09;;;;;;;6.90;2.60;;;;;;;19.77;52.82;101223.20;107555;1251;97850;-68
2023/05/29 07:59:42;;;;;;;25.70;4.40;;;;;;;19.85;51.84;101222.70;107642;1251;98361;-66
2023/05/29 08:02:11;;;;;;;10.70;3.10;;;;;;;19.94;51.90;101219.44;106795;1251;1183227;-67
2023/05/29 08:04:59;;;;;;;8.40;3.00;;;;;;;20.13;51.35;101215.95;107605;1253;109656;-66
2023/05/29 08:07:28;;;;;;;15.30;2.50;;;;;;;20.30;51.51;101214.84;107660;1250;107571;-67
2023/05/29 08:09:57;;;;;;;16.50;2.70;;;;;;;20.44;51.10;101214.48;107710;1250;97873;-67
2023/05/29 08:12:26;;;;;;;14.60;2.90;;;;;;;20.57;50.48;101214.49;107636;1251;98355;-65
2023/05/29 08:14:57;;;;;;;7.60;2.70;;;;;;;20.74;49.83;101206.52;107590;1250;111698;-68
2023/05/29 08:17:26;;;;;;;15.20;3.30;;;;;;;20.95;48.02;101209.65;107704;1251;108303;-66
2023/05/29 08:19:54;;;;;;;8.90;2.40;;;;;;;21.12;48.17;101208.98;107618;1251;107982;-67
2023/05/29 08:22:28;;;;;;;11.20;3.20;;;;;;;21.28;47.33;101208.41;107594;1250;97820;-66
2023/05/29 08:24:56;;;;;;;8.60;2.80;;;;;;;21.43;46.15;101199.33;107740;1250;97804;-67
2023/05/29 08:27:25;;;;;;;5.10;2.50;;;;;;;21.54;46.23;101198.82;107539;1251;112207;-66
2023/05/29 08:29:55;;;;;;;20.10;3.10;;;;;;;21.63;46.43;101192.98;107633;1250;109925;-69
2023/05/29 08:32:23;;;;;;;15.60;3.30;;;;;;;21.78;46.37;101199.20;107640;1251;108566;-64
2023/05/29 08:34:52;;;;;;;17.80;3.20;;;;;;;21.88;46.12;101197.41;107589;1251;97799;-70
2023/05/29 08:37:20;;;;;;;6.20;2.30;;;;;;;21.98;45.64;101194.30;107643;1250;97660;-68
2023/05/29 08:39:48;;;;;;;6.00;2.60;;;;;;;22.08;45.25;101184.96;107573;1250;112134;-66
2023/05/29 08:42:33;;;;;;;8.20;2.60;;;;;;;22.22;44.68;101182.34;107599;1251;109373;-67
2023/05/29 08:45:04;;;;;;;10.70;2.90;;;;;;;22.38;44.59;101179.51;107567;1250;108407;-68
2023/05/29 08:47:33;;;;;;;16.10;3.20;;;;;;;22.53;45.35;101176.59;107614;1251;97843;-66
2023/05/29 08:50:02;;;;;;;8.00;2.50;;;;;;;22.68;45.06;101175.58;107592;1251;97722;-67
2023/05/29 08:52:37;;;;;;;7.90;2.70;;;;;;;22.87;42.31;101174.98;107595;1251;112357;-67
2023/05/29 08:55:07;;;;;;;9.10;2.60;;;;;;;23.05;41.18;101178.80;107594;1251;110013;-66
2023/05/29 08:57:37;;;;;;;19.20;3.10;;;;;;;23.22;40.65;101179.47;107674;1251;107468;-66
2023/05/29 09:00:12;;;;;;;13.70;2.70;;;;;;;23.41;41.78;101180.54;107656;1250;98472;-66
2023/05/29 09:02:40;;;;;;;19.90;3.50;;;;;;;23.59;41.22;101171.27;107610;1251;97824;-66
2023/05/29 09:05:10;;;;;;;7.30;2.20;;;;;;;23.70;40.24;101173.11;107633;1251;111751;-67
2023/05/29 09:07:39;;;;;;;23.30;2.90;;;;;;;23.81;39.67;101176.21;107610;1250;109218;-70
2023/05/29 09:10:15;;;;;;;9.40;2.60;;;;;;;24.04;39.96;101169.21;107637;1250;107003;-68
2023/05/29 09:12:46;;;;;;;5.90;2.80;;;;;;;24.28;38.93;101168.27;107577;1250;97819;-66
2023/05/29 09:15:20;;;;;;;11.20;3.50;;;;;;;24.30;37.35;101166.23;107637;1250;97891;-66
2023/05/29 09:17:55;;;;;;;15.80;2.30;;;;;;;24.28;38.89;101170.01;107658;1251;113041;-69
2023/05/29 09:20:24;;;;;;;9.30;2.80;;;;;;;24.56;38.91;101165.81;107667;1251;108658;-67
2023/05/29 09:22:55;;;;;;;9.20;3.10;;;;;;;24.89;38.44;101160.98;107622;1251;108186;-66
2023/05/29 09:25:26;;;;;;;15.20;3.10;;;;;;;25.20;36.69;101158.34;107585;1251;97902;-68
2023/05/29 09:28:00;;;;;;;12.70;2.70;;;;;;;25.45;36.26;101155.63;107635;1251;97720;-68
2023/05/29 09:30:46;;;;;;;14.00;3.50;;;;;;;25.69;36.78;101153.98;107675;1251;112340;-66
2023/05/29 09:33:16;;;;;;;14.10;3.60;;;;;;;26.00;36.40;101157.05;107725;1250;109438;-66
2023/05/29 09:35:47;;;;;;;9.60;3.20;;;;;;;26.38;36.44;101155.02;107620;1253;108048;-65
2023/05/29 09:38:20;;;;;;;5.10;2.50;;;;;;;26.78;34.82;101155.94;107546;1251;97819;-67
2023/05/29 09:40:52;;;;;;;7.40;2.80;;;;;;;27.08;34.19;101157.83;107629;1251;97812;-65
2023/05/29 09:43:23;;;;;;;2.50;2.20;;;;;;;27.36;32.99;101158.47;107625;1251;111788;-66
2023/05/29 09:45:52;;;;;;;6.70;2.50;;;;;;;27.63;32.95;101151.71;107638;1250;109068;-65
2023/05/29 09:48:24;;;;;;;7.40;2.80;;;;;;;27.90;31.23;101144.95;107563;1251;107820;-68
2023/05/29 09:50:53;;;;;;;6.60;2.60;;;;;;;28.10;31.68;101147.28;107607;1250;97697;-66
2023/05/29 09:53:25;;;;;;;7.10;2.60;;;;;;;28.37;32.00;101141.11;107660;1251;97688;-67
2023/05/29 09:55:56;;;;;;;13.90;2.90;;;;;;;28.72;32.10;101144.45;107685;1250;110240;-67
2023/05/29 09:58:25;;;;;;;9.60;2.70;;;;;;;29.09;31.03;101135.79;107645;1251;109861;-66
2023/05/29 10:00:53;;;;;;;12.80;2.60;;;;;;;29.35;30.47;101140.31;107615;1251;107390;-67
2023/05/29 10:03:23;;;;;;;7.00;2.50;;;;;;;29.60;30.99;101135.50;107617;1251;97689;-66
2023/05/29 10:05:58;;;;;;;9.30;2.70;;;;;;;30.06;30.30;101137.61;107671;1251;97709;-66
2023/05/29 10:08:29;;;;;;;9.60;2.60;;;;;;;30.48;28.81;101130.77;107599;1251;111806;-65
2023/05/29 10:11:03;;;;;;;4.30;2.20;;;;;;;30.59;28.06;101132.84;107624;1250;108769;-70
2023/05/29 10:13:38;;;;;;;9.00;2.40;;;;;;;31.03;28.61;101132.24;107609;1253;108787;-70
2023/05/29 10:16:10;;;;;;;9.00;2.40;;;;;;;31.50;27.54;101132.61;107553;1251;97918;-68
2023/05/29 10:18:43;;;;;;;15.10;3.20;;;;;;;31.81;26.67;101130.64;107687;1250;97901;-68
2023/05/29 10:21:13;;;;;;;11.50;2.10;;;;;;;31.97;26.35;101133.21;107641;1250;112226;-67
2023/05/29 10:23:47;;;;;;;13.00;2.40;;;;;;;32.27;26.36;101130.88;107591;1251;109410;-67
2023/05/29 10:26:21;;;;;;;9.90;2.30;;;;;;;32.69;26.63;101126.95;107575;1251;108778;-68
2023/05/29 10:29:11;;;;;;;12.40;2.70;;;;;;;33.21;25.23;101115.73;107658;1251;97802;-72
2023/05/29 10:32:02;;;;;;;8.40;2.20;;;;;;;33.45;23.51;101113.76;107636;1251;97880;-72
2023/05/29 10:34:44;;;;;;;6.40;2.30;;;;;;;33.14;24.37;101111.71;107560;1251;110880;-69
2023/05/29 10:37:37;;;;;;;7.20;2.00;;;;;;;33.35;24.86;101109.70;107592;1251;108799;-68
2023/05/29 10:40:12;;;;;;;9.10;2.60;;;;;;;33.48;25.02;101100.14;107684;1251;108616;-69
2023/05/29 10:42:47;;;;;;;9.00;2.10;;;;;;;33.42;25.15;101101.17;107697;1251;98014;-68
2023/05/29 10:45:35;;;;;;;7.00;2.30;;;;;;;33.91;24.77;101103.52;107646;1251;97875;-67
2023/05/29 10:48:07;;;;;;;5.90;2.20;;;;;;;34.39;24.04;101102.31;107600;1251;112354;-68
2023/05/29 10:50:36;;;;;;;15.10;2.60;;;;;;;34.69;23.26;101098.92;107627;1254;108755;-68
2023/05/29 10:53:22;;;;;;;19.00;2.50;;;;;;;34.89;22.73;101103.98;107622;1251;108662;-66
2023/05/29 10:55:51;;;;;;;10.90;2.10;;;;;;;34.29;23.35;101100.75;107628;1253;97838;-68
2023/05/29 10:58:25;;;;;;;6.00;2.10;;;;;;;33.75;23.92;101098.15;107682;1251;97702;-68
2023/05/29 11:00:56;;;;;;;7.10;2.00;;;;;;;34.05;23.48;101092.84;107660;1251;111295;-67
2023/05/29 11:03:30;;;;;;;5.60;2.20;;;;;;;34.52;23.87;101089.55;107705;1256;108448;-67
2023/05/29 11:06:04;;;;;;;9.20;1.60;;;;;;;35.30;22.93;101084.30;107651;1250;108328;-68
2023/05/29 11:08:35;;;;;;;15.00;2.50;;;;;;;35.94;21.90;101082.13;107586;1252;97794;-69
2023/05/29 11:11:06;;;;;;;9.80;2.90;;;;;;;36.48;22.41;101079.72;107653;1251;97818;-68
2023/05/29 11:13:36;;;;;;;6.80;1.90;;;;;;;37.08;22.00;101077.77;107597;1250;112293;-68
2023/05/29 11:16:14;;;;;;;7.90;2.50;;;;;;;37.12;20.73;101076.91;107614;1251;108720;-70
2023/05/29 11:18:51;;;;;;;11.00;2.60;;;;;;;36.59;21.05;101078.14;107616;1251;108119;-66
2023/05/29 11:21:38;;;;;;;10.20;2.00;;;;;;;35.75;20.90;101082.68;107588;1251;97931;-68
2023/05/29 11:24:07;;;;;;;13.10;2.60;;;;;;;35.11;21.26;101080.19;107677;1250;97698;-70